Time;durP1;ratioP1;P1;durP2;ratioP2;P2;SDS_P1;SDS_P2;PMS_P1;PMS_P2;Temp;Humidity;BMP_temperature;BMP_pressure;BME280_temperature;BME280_humidity;BME280_pressure;Samples;Min_cycle;Max_cycle;Signal;HPM_P1;HPM_P2
2021/12/07 00:01:56;;;;;;;34.10;19.20;;;;;;;-1.33;95.46;96110.45;107371;1285;76268;-76
2021/12/07 00:04:25;;;;;;;31.50;17.30;;;;;;;-1.32;95.55;96119.44;107431;1285;38957;-76
2021/12/07 00:06:55;;;;;;;30.00;17.30;;;;;;;-1.31;95.74;96123.95;107436;1284;38415;-76
2021/12/07 00:09:24;;;;;;;32.70;17.80;;;;;;;-1.29;95.57;96125.20;107499;1284;40503;-76
2021/12/07 00:11:53;;;;;;;31.90;18.10;;;;;;;-1.26;95.48;96124.10;107498;1284;35422;-76
2021/12/07 00:14:24;;;;;;;31.70;17.60;;;;;;;-1.22;95.65;96121.47;107453;1282;39451;-76
2021/12/07 00:16:53;;;;;;;;;;;;;;;-1.18;95.68;96117.09;107530;1284;31558;-76
2021/12/07 00:19:22;;;;;;;27.90;14.90;;;;;;;-1.14;95.87;96112.25;107465;1284;40093;-76
2021/12/07 00:21:52;;;;;;;32.50;16.40;;;;;;;-1.11;95.83;96101.96;107474;1285;32082;-76
2021/12/07 00:24:21;;;;;;;35.40;20.00;;;;;;;-1.15;95.70;96096.21;107425;1285;34312;-76
2021/12/07 00:26:50;;;;;;;32.30;18.20;;;;;;;-1.22;95.78;96091.89;107425;1284;42659;-76
2021/12/07 00:29:19;;;;;;;31.40;18.40;;;;;;;-1.26;95.64;96090.52;106375;1285;1439751;-76
2021/12/07 00:31:53;;;;;;;29.40;18.50;;;;;;;-1.30;96.09;96096.57;107405;1285;50487;-76
2021/12/07 00:34:40;;;;;;;34.40;19.70;;;;;;;-1.30;96.29;96099.53;107542;1285;31228;-76
2021/12/07 00:37:11;;;;;;;32.20;19.10;;;;;;;-1.32;96.22;96099.44;107422;1285;43656;-76
2021/12/07 00:39:40;;;;;;;31.50;18.90;;;;;;;-1.31;96.35;96099.87;107508;1284;31704;-76
2021/12/07 00:42:09;;;;;;;33.40;19.30;;;;;;;-1.27;96.47;96098.03;107406;1285;41758;-76
2021/12/07 00:44:38;;;;;;;28.40;15.60;;;;;;;-1.24;96.50;96101.13;107435;1284;55887;-76
2021/12/07 00:47:06;;;;;;;35.90;19.10;;;;;;;-1.21;96.41;96109.29;107625;1284;27961;-76
2021/12/07 00:49:35;;;;;;;32.90;19.20;;;;;;;-1.21;96.36;96113.50;107521;1284;37334;-76
2021/12/07 00:52:06;;;;;;;33.60;18.60;;;;;;;-1.21;96.56;96110.73;107490;1284;43787;-76
2021/12/07 00:54:35;;;;;;;28.70;17.10;;;;;;;-1.18;96.68;96104.66;107605;1285;33000;-76
2021/12/07 00:57:05;;;;;;;31.70;18.70;;;;;;;-1.15;96.78;96095.59;107520;1285;31339;-76
2021/12/07 00:59:34;;;;;;;30.70;16.70;;;;;;;-1.13;96.62;96087.45;107557;1285;33598;-76
2021/12/07 01:02:03;;;;;;;27.80;15.50;;;;;;;-1.10;96.41;96085.98;107488;1285;40865;-76
2021/12/07 01:04:32;;;;;;;26.50;15.20;;;;;;;-1.08;96.63;96084.95;107499;1285;37199;-76
2021/12/07 01:07:05;;;;;;;25.90;14.80;;;;;;;-1.05;96.37;96088.77;107371;1285;55274;-76
2021/12/07 01:09:42;;;;;;;28.40;16.70;;;;;;;-1.07;96.02;96093.41;107561;1284;39637;-76
2021/12/07 01:26:23;;;;;;;31.70;18.70;;;;;;;-1.15;96.38;96092.30;107430;1285;46387;-76
2021/12/07 01:28:52;;;;;;;28.50;16.80;;;;;;;-1.16;96.14;96095.46;107521;1282;53707;-76
2021/12/07 01:31:26;;;;;;;27.00;17.00;;;;;;;-1.15;96.32;96093.94;107432;1285;33208;-76
2021/12/07 01:34:17;;;;;;;30.60;17.20;;;;;;;-1.20;96.29;96088.95;107448;1285;42817;-76
2021/12/07 01:37:06;;;;;;;27.80;15.80;;;;;;;-1.21;96.42;96077.35;107436;1285;44272;-76
2021/12/07 01:39:55;;;;;;;26.40;15.20;;;;;;;-1.19;96.35;96074.38;107504;1285;54289;-76
2021/12/07 01:45:47;;;;;;;25.20;14.90;;;;;;;-1.19;96.15;96077.81;106143;1284;1812963;-76
2021/12/07 01:49:46;;;;;;;26.00;13.80;;;;;;;-1.20;96.24;96079.30;107421;1285;41618;-76
2021/12/07 01:51:22;;;;;;;26.10;14.60;;;;;;;-1.22;96.25;96080.45;107538;1284;37562;-76
2021/12/07 01:59:37;;;;;;;18.90;10.80;;;;;;;-1.26;95.98;96083.66;107200;1291;34237;-76
2021/12/07 02:02:08;;;;;;;19.50;10.90;;;;;;;-1.26;96.18;96084.79;107474;1284;37840;-76
2021/12/07 02:04:38;;;;;;;21.00;11.50;;;;;;;-1.27;96.22;96087.83;107626;1284;46578;-76
2021/12/07 02:07:08;;;;;;;20.40;12.80;;;;;;;-1.28;96.12;96086.79;106518;1284;1400468;-76
2021/12/07 02:09:37;;;;;;;;;;;;;;;-1.28;96.24;96083.15;107515;1285;47462;-76
2021/12/07 02:12:09;;;;;;;18.50;10.70;;;;;;;-1.28;96.18;96084.32;107496;1284;33517;-76
2021/12/07 02:14:38;;;;;;;22.60;12.40;;;;;;;-1.28;96.13;96080.46;107604;1284;39754;-76
2021/12/07 02:17:09;;;;;;;20.90;12.60;;;;;;;-1.27;96.25;96087.30;107536;1285;50053;-76
2021/12/07 02:19:39;;;;;;;25.40;12.70;;;;;;;-1.28;96.09;96091.86;107394;1284;43810;-76
2021/12/07 02:22:10;;;;;;;19.00;11.80;;;;;;;-1.28;96.14;96087.59;107453;1285;42363;-76
2021/12/07 02:24:39;;;;;;;26.60;14.80;;;;;;;-1.28;96.20;96088.98;107429;1284;36926;-76
2021/12/07 02:27:09;;;;;;;23.00;13.20;;;;;;;-1.27;96.38;96082.06;106151;1284;1802947;-76
2021/12/07 02:29:38;;;;;;;21.90;12.10;;;;;;;-1.26;96.34;96081.06;107486;1283;45431;-76
2021/12/07 02:32:09;;;;;;;28.30;14.20;;;;;;;-1.26;96.08;96079.86;107527;1284;70371;-76
2021/12/07 02:34:43;;;;;;;24.80;13.90;;;;;;;-1.25;96.00;96075.41;107590;1285;32898;-76
2021/12/07 02:37:12;;;;;;;18.20;10.80;;;;;;;-1.27;96.05;96072.34;107403;1284;44201;-76
2021/12/07 02:39:41;;;;;;;17.90;10.20;;;;;;;-1.26;96.25;96071.42;107469;1284;32667;-76
2021/12/07 02:42:12;;;;;;;19.40;11.20;;;;;;;-1.28;96.30;96079.95;106037;1285;1941546;-76
2021/12/07 02:44:40;;;;;;;22.40;11.60;;;;;;;-1.27;96.37;96081.59;107531;1285;36422;-76
2021/12/07 02:47:14;;;;;;;19.30;11.00;;;;;;;-1.27;96.39;96084.54;107390;1285;41281;-76
2021/12/07 02:49:43;;;;;;;20.40;11.10;;;;;;;-1.28;96.34;96087.27;107475;1284;38064;-76
2021/12/07 02:52:13;;;;;;;18.80;10.80;;;;;;;-1.27;96.28;96080.67;107452;1284;37822;-76
2021/12/07 02:54:45;;;;;;;23.80;13.20;;;;;;;-1.26;96.58;96076.39;107492;1284;30929;-76
2021/12/07 02:57:16;;;;;;;21.80;12.20;;;;;;;-1.25;96.39;96073.45;107413;1284;41483;-76
2021/12/07 02:59:50;;;;;;;18.90;10.70;;;;;;;-1.25;96.55;96072.76;107515;1285;38787;-76
2021/12/07 03:02:21;;;;;;;20.40;11.00;;;;;;;-1.24;96.27;96073.83;107405;1284;65103;-76
2021/12/07 03:04:58;;;;;;;16.10;9.90;;;;;;;-1.25;96.40;96071.97;107444;1285;33555;-76
2021/12/07 03:07:46;;;;;;;20.70;11.40;;;;;;;-1.29;96.56;96076.84;107450;1285;61895;-76
2021/12/07 03:26:55;;;;;;;19.40;9.50;;;;;;;-1.34;96.98;96082.27;107520;1285;30231;-77
2021/12/07 03:29:24;;;;;;;18.60;10.70;;;;;;;-1.34;97.02;96081.70;107473;1285;83019;-77
2021/12/07 03:31:53;;;;;;;19.70;10.90;;;;;;;-1.33;96.88;96087.81;107445;1285;51445;-77
2021/12/07 03:34:22;;;;;;;24.00;12.40;;;;;;;-1.33;96.90;96085.41;107416;1284;50029;-77
2021/12/07 03:36:52;;;;;;;19.10;11.40;;;;;;;-1.33;96.95;96085.61;107496;1284;50915;-77
2021/12/07 03:39:31;;;;;;;17.20;11.00;;;;;;;-1.33;97.03;96082.77;107432;1284;45548;-76
2021/12/07 03:41:59;;;;;;;19.80;10.60;;;;;;;-1.34;97.00;96085.38;107466;1284;32462;-77
2021/12/07 03:44:30;;;;;;;19.00;10.50;;;;;;;-1.35;97.06;96090.27;107425;1284;82740;-77
2021/12/07 03:47:01;;;;;;;18.20;11.00;;;;;;;-1.33;96.88;96092.29;107488;1284;40587;-77
2021/12/07 03:49:30;;;;;;;18.70;10.30;;;;;;;-1.32;96.90;96089.23;107454;1284;49422;-77
2021/12/07 03:52:01;;;;;;;17.80;10.00;;;;;;;-1.32;96.78;96089.98;107444;1284;34234;-77
2021/12/07 03:54:30;;;;;;;16.70;10.10;;;;;;;-1.31;96.83;96089.90;107453;1284;55760;-77
2021/12/07 03:56:59;;;;;;;19.80;11.30;;;;;;;-1.31;96.96;96094.46;107426;1285;44258;-77
2021/12/07 03:59:28;;;;;;;20.10;10.60;;;;;;;-1.32;96.83;96093.46;107510;1285;33244;-77
2021/12/07 04:01:56;;;;;;;16.40;10.40;;;;;;;-1.30;96.97;96095.60;107439;1284;45538;-77
2021/12/07 04:04:25;;;;;;;18.20;10.00;;;;;;;-1.29;96.76;96097.03;107457;1284;32069;-77
2021/12/07 04:06:54;;;;;;;20.90;11.40;;;;;;;-1.29;96.65;96098.68;107428;1285;34541;-77
2021/12/07 04:09:24;;;;;;;21.60;11.60;;;;;;;-1.28;96.97;96098.02;107422;1287;42637;-77
2021/12/07 04:11:53;;;;;;;20.60;11.10;;;;;;;-1.29;96.68;96100.92;107453;1284;41212;-77
2021/12/07 04:14:25;;;;;;;19.00;10.50;;;;;;;-1.30;96.53;96101.09;107478;1284;45626;-77
2021/12/07 04:16:54;;;;;;;20.10;9.90;;;;;;;-1.32;96.77;96101.31;107521;1284;53551;-77
2021/12/07 04:19:23;;;;;;;16.80;9.70;;;;;;;-1.32;96.67;96099.27;107461;1284;41287;-77
2021/12/07 04:21:51;;;;;;;20.70;11.20;;;;;;;-1.33;96.78;96101.97;107492;1284;43424;-77
2021/12/07 04:24:20;;;;;;;15.30;9.70;;;;;;;-1.32;96.85;96102.87;107528;1284;33254;-77
2021/12/07 04:26:49;;;;;;;17.50;10.40;;;;;;;-1.31;96.81;96106.34;107415;1285;52491;-76
2021/12/07 04:29:18;;;;;;;20.40;11.70;;;;;;;-1.33;96.85;96107.52;107456;1284;32666;-77
2021/12/07 04:31:47;;;;;;;20.50;11.00;;;;;;;-1.33;96.86;96109.81;107404;1285;52132;-77
2021/12/07 04:34:17;;;;;;;19.80;10.90;;;;;;;-1.33;96.74;96106.52;106426;1282;1520689;-77
2021/12/07 04:36:47;;;;;;;22.70;12.60;;;;;;;-1.34;96.80;96111.09;107478;1285;32854;-77
2021/12/07 04:39:16;;;;;;;24.50;12.50;;;;;;;-1.35;96.98;96110.02;107523;1284;45225;-77
2021/12/07 04:41:47;;;;;;;21.00;12.00;;;;;;;-1.34;96.89;96113.38;107436;1285;35170;-77
2021/12/07 04:44:16;;;;;;;21.90;10.20;;;;;;;-1.34;97.07;96110.46;107377;1285;55470;-77
2021/12/07 04:46:52;;;;;;;20.50;12.10;;;;;;;-1.36;96.90;96114.55;107545;1285;36466;-77
2021/12/07 04:49:52;;;;;;;21.50;11.40;;;;;;;-1.37;96.81;96118.70;107436;1284;46356;-77
2021/12/07 04:58:01;;;;;;;21.00;11.90;;;;;;;-1.43;97.02;96115.63;107405;1284;56951;-77
2021/12/07 05:00:30;;;;;;;19.10;11.80;;;;;;;-1.45;97.20;96110.17;107498;1283;38235;-77
2021/12/07 05:03:02;;;;;;;18.50;10.40;;;;;;;-1.45;97.16;96111.52;107419;1285;45758;-77
2021/12/07 05:05:38;;;;;;;22.00;11.20;;;;;;;-1.44;97.48;96115.67;107426;1285;47105;-77
2021/12/07 05:08:11;;;;;;;21.80;11.90;;;;;;;-1.46;97.55;96119.30;107537;1285;38848;-77
2021/12/07 05:11:10;;;;;;;21.50;11.80;;;;;;;-1.50;97.36;96119.65;107467;1284;46089;-77
2021/12/07 05:13:33;;;;;;;17.40;10.50;;;;;;;-1.49;97.71;96117.13;107434;1285;46617;-77
2021/12/07 05:16:27;;;;;;;20.50;10.50;;;;;;;-1.46;97.56;96116.73;107470;1284;48487;-77
2021/12/07 05:19:03;;;;;;;19.90;11.70;;;;;;;-1.44;97.63;96118.30;107456;1285;30639;-77
2021/12/07 05:24:23;;;;;;;23.30;11.60;;;;;;;-1.41;97.63;96116.95;107522;1284;46895;-76
2021/12/07 05:38:03;;;;;;;25.50;13.10;;;;;;;-1.47;97.53;96116.31;107492;1284;112607;-77
2021/12/07 05:40:34;;;;;;;27.30;13.70;;;;;;;-1.47;97.52;96112.86;107514;1284;32436;-77
2021/12/07 05:43:05;;;;;;;40.30;21.10;;;;;;;-1.49;97.40;96116.04;107487;1285;60007;-77
2021/12/07 05:45:37;;;;;;;46.10;24.40;;;;;;;-1.50;97.43;96116.06;107495;1284;79706;-77
2021/12/07 05:48:08;;;;;;;26.70;16.20;;;;;;;-1.52;97.30;96114.71;107651;1285;35473;-77
2021/12/07 05:50:40;;;;;;;23.80;14.00;;;;;;;-1.57;97.28;96116.63;107506;1284;94491;-77
2021/12/07 05:53:11;;;;;;;26.50;14.00;;;;;;;-1.64;97.43;96119.23;107428;1285;43664;-77
2021/12/07 05:55:40;;;;;;;26.10;13.90;;;;;;;-1.66;97.70;96119.11;107374;1284;58924;-77
2021/12/07 05:58:12;;;;;;;26.40;14.10;;;;;;;-1.69;97.57;96118.38;107478;1285;35398;-77
2021/12/07 06:00:45;;;;;;;27.90;13.90;;;;;;;-1.66;97.55;96113.29;107491;1284;43020;-77
2021/12/07 06:03:15;;;;;;;25.60;14.30;;;;;;;-1.62;97.70;96115.16;107547;1282;41815;-77
2021/12/07 06:05:44;;;;;;;25.20;13.70;;;;;;;-1.59;97.77;96116.36;107466;1284;34354;-77
2021/12/07 06:08:13;;;;;;;27.70;16.00;;;;;;;-1.58;97.70;96119.67;107462;1284;56181;-77
2021/12/07 06:10:42;;;;;;;34.70;16.70;;;;;;;-1.55;97.91;96123.66;106175;1284;1703088;-77
2021/12/07 06:13:10;;;;;;;27.90;14.60;;;;;;;-1.53;97.86;96121.54;107484;1284;37354;-77
2021/12/07 06:15:43;;;;;;;28.20;15.00;;;;;;;-1.52;97.88;96125.16;107430;1282;42822;-77
2021/12/07 06:18:13;;;;;;;27.90;13.80;;;;;;;-1.54;97.76;96123.13;107439;1284;67713;-77
2021/12/07 06:20:42;;;;;;;32.90;15.00;;;;;;;-1.56;97.63;96127.45;107471;1285;31960;-77
2021/12/07 06:23:11;;;;;;;28.00;14.00;;;;;;;-1.57;97.86;96124.58;107370;1284;47329;-77
2021/12/07 06:25:41;;;;;;;27.60;14.60;;;;;;;-1.59;97.88;96122.68;107446;1285;37243;-77
2021/12/07 06:28:10;;;;;;;27.50;14.90;;;;;;;-1.59;97.66;96127.21;107443;1284;44391;-77
2021/12/07 06:30:39;;;;;;;30.30;16.40;;;;;;;-1.58;97.60;96128.91;107510;1285;30316;-77
2021/12/07 06:33:08;;;;;;;26.70;14.40;;;;;;;-1.56;97.86;96127.25;107511;1282;38935;-77
2021/12/07 06:35:37;;;;;;;27.40;14.80;;;;;;;-1.55;97.64;96128.30;107493;1284;44080;-77
2021/12/07 06:38:05;;;;;;;26.70;14.30;;;;;;;-1.54;98.00;96126.29;107448;1284;43491;-77
2021/12/07 06:40:38;;;;;;;25.40;14.80;;;;;;;-1.53;97.73;96129.61;107473;1284;35997;-77
2021/12/07 06:43:07;;;;;;;25.30;13.70;;;;;;;-1.52;97.59;96135.77;107553;1285;31873;-77
2021/12/07 06:45:36;;;;;;;32.60;15.60;;;;;;;-1.52;97.71;96134.31;107597;1284;39030;-77
2021/12/07 06:48:06;;;;;;;29.10;14.60;;;;;;;-1.51;97.65;96141.89;107572;1284;56089;-77
2021/12/07 06:50:36;;;;;;;29.30;15.90;;;;;;;-1.49;97.68;96145.72;106275;1284;1801000;-77
2021/12/07 06:53:05;;;;;;;29.50;15.80;;;;;;;-1.48;97.81;96150.55;107610;1284;30452;-77
2021/12/07 06:55:35;;;;;;;23.90;13.90;;;;;;;-1.46;97.83;96143.81;107527;1284;36107;-77
2021/12/07 06:58:04;;;;;;;28.20;13.60;;;;;;;-1.45;97.52;96147.52;107456;1285;59895;-77
2021/12/07 07:00:34;;;;;;;23.60;13.70;;;;;;;-1.46;97.53;96150.08;107459;1284;32764;-77
2021/12/07 07:03:03;;;;;;;28.80;15.00;;;;;;;-1.47;97.71;96153.38;107454;1284;34099;-77
2021/12/07 07:05:32;;;;;;;22.70;12.90;;;;;;;-1.47;97.70;96152.02;107415;1284;53761;-77
2021/12/07 07:08:01;;;;;;;24.90;13.70;;;;;;;-1.46;97.66;96156.05;107399;1284;39633;-77
2021/12/07 07:10:30;;;;;;;28.60;14.20;;;;;;;-1.44;97.57;96159.54;107390;1284;49270;-77
2021/12/07 07:12:59;;;;;;;23.80;13.80;;;;;;;-1.42;97.75;96163.48;107393;1284;66788;-77
2021/12/07 07:15:29;;;;;;;25.00;13.80;;;;;;;-1.42;97.58;96165.04;107420;1284;40975;-77
2021/12/07 07:17:57;;;;;;;26.80;13.60;;;;;;;-1.44;97.46;96165.27;107373;1285;68265;-77
2021/12/07 07:20:27;;;;;;;26.90;13.10;;;;;;;-1.44;97.45;96163.02;107450;1284;42043;-77
2021/12/07 07:22:56;;;;;;;25.40;13.40;;;;;;;-1.42;97.46;96162.96;107450;1284;31352;-77
2021/12/07 07:25:25;;;;;;;25.90;13.40;;;;;;;-1.42;97.48;96161.95;107452;1284;41500;-77
2021/12/07 07:27:54;;;;;;;20.30;12.60;;;;;;;-1.40;97.42;96166.84;107423;1284;47745;-76
2021/12/07 07:30:23;;;;;;;25.40;13.80;;;;;;;-1.40;97.10;96164.76;107495;1284;47503;-76
2021/12/07 07:32:52;;;;;;;24.40;14.60;;;;;;;-1.39;97.31;96166.72;107441;1278;178135;-76
2021/12/07 07:35:21;;;;;;;25.80;14.30;;;;;;;-1.39;97.36;96169.60;107472;1284;76724;-76
2021/12/07 07:37:52;;;;;;;27.80;15.00;;;;;;;-1.38;97.34;96169.62;107543;1284;43207;-76
2021/12/07 07:40:23;;;;;;;27.20;14.10;;;;;;;-1.36;97.34;96167.29;107329;1285;72306;-76
2021/12/07 07:42:51;;;;;;;24.10;13.90;;;;;;;-1.36;97.41;96168.69;107495;1284;29578;-76
2021/12/07 07:45:20;;;;;;;23.70;14.50;;;;;;;-1.38;97.22;96168.73;107407;1284;51888;-76
2021/12/07 07:47:49;;;;;;;28.40;14.30;;;;;;;-1.36;97.22;96167.84;107410;1284;43586;-76
2021/12/07 07:50:18;;;;;;;29.60;14.50;;;;;;;-1.35;97.31;96167.31;107485;1284;28965;-76
2021/12/07 07:52:47;;;;;;;22.30;12.60;;;;;;;-1.33;97.09;96168.45;107397;1284;43177;-76
2021/12/07 07:55:18;;;;;;;25.70;14.30;;;;;;;-1.33;97.33;96168.14;107396;1285;33664;-76
2021/12/07 07:57:47;;;;;;;25.60;14.60;;;;;;;-1.35;97.38;96172.11;107371;1285;45599;-76
2021/12/07 08:00:19;;;;;;;23.90;14.80;;;;;;;-1.32;97.28;96170.73;107462;1284;31916;-76
2021/12/07 08:02:48;;;;;;;25.20;14.70;;;;;;;-1.30;97.35;96166.37;107438;1284;31443;-76
2021/12/07 08:05:18;;;;;;;30.30;15.40;;;;;;;-1.28;97.40;96165.59;107480;1284;67700;-76
2021/12/07 08:07:47;;;;;;;28.50;15.90;;;;;;;-1.25;97.27;96167.98;107426;1284;33919;-76
2021/12/07 08:10:20;;;;;;;26.30;14.40;;;;;;;-1.23;97.46;96169.25;107413;1284;36470;-76
2021/12/07 08:12:50;;;;;;;25.00;14.00;;;;;;;-1.22;97.09;96166.55;107422;1284;40738;-76
2021/12/07 08:15:19;;;;;;;18.40;10.10;;;;;;;-1.22;97.27;96168.76;107432;1284;34463;-77
2021/12/07 08:17:50;;;;;;;26.50;14.00;;;;;;;-1.22;97.05;96170.75;107388;1284;48312;-76
2021/12/07 08:20:19;;;;;;;30.30;15.30;;;;;;;-1.19;97.23;96169.45;107403;1284;47780;-76
2021/12/07 08:22:48;;;;;;;26.80;15.50;;;;;;;-1.16;97.24;96168.90;107355;1285;61881;-76
2021/12/07 08:25:17;;;;;;;24.20;13.70;;;;;;;-1.16;97.13;96170.25;107390;1284;40292;-76
2021/12/07 08:27:46;;;;;;;26.90;14.90;;;;;;;-1.16;97.34;96172.25;107351;1284;54524;-77
2021/12/07 08:30:17;;;;;;;24.80;14.40;;;;;;;-1.16;97.25;96174.69;107392;1284;64547;-77
2021/12/07 08:32:46;;;;;;;25.40;14.10;;;;;;;-1.16;97.14;96174.41;107544;1284;47654;-77
2021/12/07 08:35:17;;;;;;;32.30;16.10;;;;;;;-1.17;97.26;96175.91;107521;1284;68956;-76
2021/12/07 08:37:47;;;;;;;32.60;15.90;;;;;;;-1.15;97.28;96176.73;107483;1282;48906;-76
2021/12/07 08:40:19;;;;;;;26.50;15.10;;;;;;;-1.14;97.25;96174.15;107499;1281;44904;-76
2021/12/07 08:42:49;;;;;;;27.60;15.40;;;;;;;-1.15;97.32;96169.92;107474;1284;33510;-76
2021/12/07 08:45:18;;;;;;;25.80;14.30;;;;;;;-1.16;97.16;96175.37;107507;1284;37161;-76
2021/12/07 08:47:48;;;;;;;23.00;13.20;;;;;;;-1.17;96.94;96172.30;107384;1284;40375;-76
2021/12/07 08:50:20;;;;;;;30.00;15.80;;;;;;;-1.19;97.13;96171.32;107393;1281;69036;-76
2021/12/07 08:52:51;;;;;;;29.50;15.60;;;;;;;-1.20;97.09;96171.05;107441;1284;49423;-76
2021/12/07 09:00:57;;;;;;;30.10;15.70;;;;;;;-1.23;96.80;96176.34;107394;1285;73125;-76
2021/12/07 09:03:27;;;;;;;30.60;15.80;;;;;;;-1.23;96.96;96180.73;107431;1284;48756;-77
2021/12/07 09:05:57;;;;;;;28.50;16.60;;;;;;;-1.22;97.05;96178.08;107428;1284;46036;-76
2021/12/07 09:08:26;;;;;;;32.90;16.50;;;;;;;-1.22;96.89;96176.04;107502;1284;52535;-76
2021/12/07 09:10:55;;;;;;;27.30;14.60;;;;;;;-1.23;96.77;96173.84;107391;1284;57570;-76
2021/12/07 09:13:26;;;;;;;31.00;16.00;;;;;;;-1.22;96.77;96171.52;107547;1284;37781;-76
2021/12/07 09:15:56;;;;;;;26.00;15.00;;;;;;;-1.21;96.69;96171.59;107397;1284;35159;-76
2021/12/07 09:18:26;;;;;;;28.70;15.40;;;;;;;-1.20;96.69;96170.58;107419;1284;39566;-77
2021/12/07 09:20:55;;;;;;;26.60;16.20;;;;;;;-1.20;96.69;96169.05;107377;1285;63258;-76
2021/12/07 09:23:25;;;;;;;27.00;14.70;;;;;;;-1.21;96.49;96166.15;107434;1281;33078;-76
2021/12/07 09:25:54;;;;;;;26.00;15.30;;;;;;;-1.21;96.72;96169.73;107412;1284;40647;-76
2021/12/07 09:28:25;;;;;;;29.60;14.40;;;;;;;-1.16;96.43;96171.36;107444;1285;35707;-76
2021/12/07 09:30:54;;;;;;;25.70;14.60;;;;;;;-1.11;96.64;96172.41;107388;1285;67501;-76
2021/12/07 09:33:26;;;;;;;25.00;14.10;;;;;;;-1.06;96.65;96174.80;107460;1284;49861;-76
2021/12/07 09:35:56;;;;;;;28.00;15.00;;;;;;;-1.02;96.36;96172.75;107469;1284;30397;-76
2021/12/07 09:38:25;;;;;;;30.00;16.50;;;;;;;-1.00;96.50;96176.98;107457;1284;37930;-76
2021/12/07 09:40:55;;;;;;;28.30;16.60;;;;;;;-1.01;96.15;96173.58;107422;1284;37465;-76
2021/12/07 09:43:24;;;;;;;28.60;15.80;;;;;;;-1.01;96.24;96174.39;107454;1282;35838;-76
2021/12/07 09:45:53;;;;;;;28.80;15.30;;;;;;;-1.00;96.03;96171.73;105898;1285;2099203;-76
2021/12/07 09:48:22;;;;;;;32.20;17.80;;;;;;;-1.01;96.03;96168.85;107404;1284;41136;-76
2021/12/07 09:50:53;;;;;;;30.70;16.90;;;;;;;-1.01;96.15;96172.17;107444;1285;32089;-76
2021/12/07 09:53:24;;;;;;;31.70;16.60;;;;;;;-0.99;96.07;96170.73;107487;1284;43649;-76
2021/12/07 09:55:53;;;;;;;28.10;16.60;;;;;;;-1.01;96.09;96172.06;107451;1285;48315;-76
2021/12/07 09:58:25;;;;;;;29.00;16.70;;;;;;;-1.09;95.73;96175.00;107288;1284;55123;-77
2021/12/07 10:00:55;;;;;;;29.30;17.80;;;;;;;-1.16;95.65;96176.57;107416;1284;42285;-76
2021/12/07 10:03:26;;;;;;;27.30;17.10;;;;;;;-1.24;95.50;96182.14;107373;1283;45868;-76
2021/12/07 10:05:55;;;;;;;29.50;16.30;;;;;;;-1.26;95.89;96185.60;107431;1285;34758;-76
2021/12/07 10:08:25;;;;;;;23.90;15.40;;;;;;;-1.31;95.62;96187.14;107424;1284;32707;-76
2021/12/07 10:10:58;;;;;;;29.90;16.70;;;;;;;-1.35;95.59;96180.99;107433;1284;36878;-76
2021/12/07 10:13:29;;;;;;;31.10;17.70;;;;;;;-1.36;95.73;96184.55;107439;1284;35045;-76
2021/12/07 10:16:00;;;;;;;32.00;20.00;;;;;;;-1.35;95.51;96184.31;107335;1284;54668;-76
2021/12/07 10:18:31;;;;;;;34.10;20.90;;;;;;;-1.40;95.42;96181.20;107430;1284;44182;-76
2021/12/07 10:21:03;;;;;;;32.80;20.20;;;;;;;-1.46;95.48;96179.27;107371;1284;37995;-76
2021/12/07 10:23:37;;;;;;;30.50;19.80;;;;;;;-1.56;95.45;96182.72;106329;1283;1521220;-76
2021/12/07 10:26:09;;;;;;;36.50;20.60;;;;;;;-1.56;95.67;96181.80;107611;1284;27759;-76
2021/12/07 10:28:41;;;;;;;29.90;18.90;;;;;;;-1.52;96.02;96185.10;107529;1284;45887;-76
2021/12/07 10:31:23;;;;;;;27.70;16.70;;;;;;;-1.50;95.92;96187.88;107423;1284;37139;-76
2021/12/07 10:33:57;;;;;;;25.70;15.40;;;;;;;-1.49;95.86;96185.39;107388;1282;39802;-76
2021/12/07 10:36:30;;;;;;;20.70;13.70;;;;;;;-1.46;95.76;96184.16;107430;1285;32135;-76
2021/12/07 10:39:06;;;;;;;21.00;13.30;;;;;;;-1.44;95.86;96177.14;107456;1284;49235;-76
2021/12/07 10:41:37;;;;;;;23.80;13.40;;;;;;;-1.45;95.60;96177.66;107500;1284;41347;-76
2021/12/07 10:44:09;;;;;;;22.20;12.10;;;;;;;-1.41;95.60;96178.23;107488;1281;45154;-76
2021/12/07 10:46:52;;;;;;;26.00;14.40;;;;;;;-1.40;95.37;96180.16;107453;1284;34219;-76
2021/12/07 10:49:26;;;;;;;23.00;13.00;;;;;;;-1.39;95.32;96177.48;107413;1285;33149;-76
2021/12/07 10:52:08;;;;;;;22.70;14.50;;;;;;;-1.38;95.29;96176.71;107605;1284;55025;-76
2021/12/07 10:54:40;;;;;;;23.00;13.40;;;;;;;-1.35;95.47;96180.11;107652;1284;32752;-76
2021/12/07 10:57:13;;;;;;;23.90;15.20;;;;;;;-1.31;95.43;96180.39;107489;1281;45539;-76
2021/12/07 10:59:53;;;;;;;26.60;14.60;;;;;;;-1.30;95.33;96184.73;107564;1284;35176;-76
2021/12/07 11:02:23;;;;;;;24.20;14.70;;;;;;;-1.26;95.31;96185.33;107620;1284;45145;-76
2021/12/07 11:04:51;;;;;;;;;;;;;;;-1.22;95.25;96184.00;107562;1284;33910;-76
2021/12/07 11:07:23;;;;;;;23.50;13.80;;;;;;;-1.19;95.43;96183.45;107542;1284;34286;-76
2021/12/07 11:10:00;;;;;;;24.10;14.70;;;;;;;-1.17;95.46;96181.27;107404;1283;38990;-76
2021/12/07 11:12:36;;;;;;;31.00;15.50;;;;;;;-1.15;95.31;96183.36;107341;1284;60073;-76
2021/12/07 11:15:14;;;;;;;23.10;14.10;;;;;;;-1.11;95.16;96181.86;107474;1284;28659;-76
2021/12/07 11:17:44;;;;;;;23.00;13.10;;;;;;;-1.08;95.17;96183.58;107429;1285;45395;-76
2021/12/07 11:20:13;;;;;;;25.20;14.80;;;;;;;-1.03;94.94;96180.08;107362;1285;44506;-76
2021/12/07 11:22:46;;;;;;;16.80;9.50;;;;;;;-1.00;94.97;96184.21;107500;1283;55759;-76
2021/12/07 11:25:42;;;;;;;24.20;13.40;;;;;;;-0.97;94.97;96186.44;107389;1284;52936;-76
2021/12/07 11:31:18;;;;;;;22.50;12.60;;;;;;;-0.92;94.75;96185.82;107388;1284;49492;-77
2021/12/07 11:33:48;;;;;;;22.50;13.20;;;;;;;-0.90;94.92;96183.80;107515;1284;41127;-77
2021/12/07 11:36:20;;;;;;;21.20;13.20;;;;;;;-0.89;94.67;96183.66;107380;1284;34894;-77
2021/12/07 11:38:50;;;;;;;23.80;13.10;;;;;;;-0.86;94.51;96184.39;107442;1284;35318;-76
2021/12/07 11:41:22;;;;;;;27.10;14.00;;;;;;;-0.85;94.43;96185.91;107541;1284;42241;-77
2021/12/07 11:43:57;;;;;;;25.10;14.30;;;;;;;-0.82;94.37;96184.02;107407;1284;42683;-76
2021/12/07 11:46:29;;;;;;;26.80;14.40;;;;;;;-0.82;94.31;96181.96;107343;1284;63322;-77
2021/12/07 11:49:15;;;;;;;24.50;13.70;;;;;;;-0.81;94.28;96178.64;107405;1284;69738;-77
2021/12/07 11:51:46;;;;;;;25.70;13.40;;;;;;;-0.76;94.30;96180.02;107365;1284;41948;-77
2021/12/07 11:54:17;;;;;;;23.20;12.50;;;;;;;-0.73;94.19;96179.05;107438;1284;33888;-77
2021/12/07 11:56:47;;;;;;;23.00;13.20;;;;;;;-0.72;94.02;96179.19;105883;1284;2106293;-77
2021/12/07 11:59:17;;;;;;;24.80;13.90;;;;;;;-0.73;93.88;96179.20;107479;1284;32618;-77
2021/12/07 12:01:48;;;;;;;23.10;13.90;;;;;;;-0.76;93.92;96179.92;107459;1284;42165;-77
2021/12/07 12:04:19;;;;;;;25.70;14.50;;;;;;;-0.77;93.75;96179.98;107398;1284;37630;-77
2021/12/07 12:06:50;;;;;;;21.30;13.40;;;;;;;-0.77;93.77;96184.63;107390;1284;65020;-77
2021/12/07 12:09:20;;;;;;;25.40;13.80;;;;;;;-0.77;93.69;96187.02;107447;1284;30598;-77
2021/12/07 12:11:59;;;;;;;25.60;14.80;;;;;;;-0.77;93.70;96184.42;107438;1285;39326;-77
2021/12/07 12:14:47;;;;;;;23.00;13.10;;;;;;;-0.74;93.79;96186.95;107437;1284;34509;-77
2021/12/07 12:17:26;;;;;;;22.60;13.80;;;;;;;-0.73;93.66;96189.05;107446;1284;35954;-77
2021/12/07 12:20:12;;;;;;;23.70;13.70;;;;;;;-0.75;93.82;96189.89;107394;1282;36318;-77
2021/12/07 12:22:49;;;;;;;23.60;14.80;;;;;;;-0.80;93.46;96191.06;107456;1285;31273;-77
2021/12/07 12:25:23;;;;;;;27.10;15.90;;;;;;;-0.82;93.40;96189.70;107447;1284;36262;-77
2021/12/07 12:27:54;;;;;;;23.90;13.70;;;;;;;-0.84;93.37;96188.55;107380;1284;39031;-76
2021/12/07 12:30:28;;;;;;;28.20;16.40;;;;;;;-0.86;93.33;96185.67;107409;1284;38039;-77
2021/12/07 12:32:59;;;;;;;24.70;15.30;;;;;;;-0.87;93.34;96186.41;107401;1281;41264;-77
2021/12/07 12:35:31;;;;;;;30.00;16.70;;;;;;;-0.91;93.56;96183.77;107451;1282;36103;-76
2021/12/07 12:38:01;;;;;;;32.00;16.90;;;;;;;-0.94;93.46;96184.89;107521;1284;43460;-77